sensor_id;sensor_type;location;lat;lon;timestamp;P1;durP1;ratioP1;P2;durP2;ratioP2
15287;SDS011;7745;48.708;9.026;2024-01-10T00:00:07;21.07;;;12.17;;
15287;SDS011;7745;48.708;9.026;2024-01-10T00:02:35;22.20;;;11.73;;
15287;SDS011;7745;48.708;9.026;2024-01-10T00:05:03;17.63;;;10.83;;
15287;SDS011;7745;48.708;9.026;2024-01-10T00:07:31;22.47;;;11.17;;
15287;SDS011;7745;48.708;9.026;2024-01-10T00:09:57;21.17;;;11.00;;
15287;SDS011;7745;48.708;9.026;2024-01-10T00:12:26;19.67;;;10.53;;
15287;SDS011;7745;48.708;9.026;2024-01-10T00:14:58;19.33;;;10.87;;
15287;SDS011;7745;48.708;9.026;2024-01-10T00:17:25;22.20;;;11.33;;
15287;SDS011;7745;48.708;9.026;2024-01-10T00:19:52;22.20;;;11.43;;
15287;SDS011;7745;48.708;9.026;2024-01-10T00:22:20;18.07;;;10.87;;
15287;SDS011;7745;48.708;9.026;2024-01-10T00:24:46;19.63;;;11.17;;
15287;SDS011;7745;48.708;9.026;2024-01-10T00:27:15;21.03;;;10.53;;
15287;SDS011;7745;48.708;9.026;2024-01-10T00:29:42;21.83;;;11.80;;
15287;SDS011;7745;48.708;9.026;2024-01-10T00:32:08;17.73;;;11.43;;
15287;SDS011;7745;48.708;9.026;2024-01-10T00:34:35;23.67;;;11.37;;
15287;SDS011;7745;48.708;9.026;2024-01-10T00:37:02;20.80;;;11.63;;
15287;SDS011;7745;48.708;9.026;2024-01-10T00:39:30;16.07;;;10.50;;
15287;SDS011;7745;48.708;9.026;2024-01-10T00:41:57;22.67;;;11.80;;
15287;SDS011;7745;48.708;9.026;2024-01-10T00:44:24;20.23;;;11.97;;
15287;SDS011;7745;48.708;9.026;2024-01-10T00:46:51;19.57;;;12.33;;
15287;SDS011;7745;48.708;9.026;2024-01-10T00:49:18;22.23;;;12.43;;
15287;SDS011;7745;48.708;9.026;2024-01-10T00:51:45;19.57;;;12.13;;
15287;SDS011;7745;48.708;9.026;2024-01-10T00:54:12;25.00;;;12.00;;
15287;SDS011;7745;48.708;9.026;2024-01-10T00:56:40;21.50;;;12.30;;
15287;SDS011;7745;48.708;9.026;2024-01-10T00:59:07;21.33;;;12.30;;
15287;SDS011;7745;48.708;9.026;2024-01-10T01:01:34;21.63;;;12.00;;
15287;SDS011;7745;48.708;9.026;2024-01-10T01:04:01;19.13;;;10.83;;
15287;SDS011;7745;48.708;9.026;2024-01-10T01:06:28;23.90;;;11.93;;
15287;SDS011;7745;48.708;9.026;2024-01-10T01:08:55;19.60;;;11.87;;
15287;SDS011;7745;48.708;9.026;2024-01-10T01:11:23;26.23;;;12.40;;
15287;SDS011;7745;48.708;9.026;2024-01-10T01:13:51;21.33;;;12.13;;
15287;SDS011;7745;48.708;9.026;2024-01-10T01:16:18;22.43;;;13.07;;
15287;SDS011;7745;48.708;9.026;2024-01-10T01:18:45;23.50;;;12.20;;
15287;SDS011;7745;48.708;9.026;2024-01-10T01:21:11;20.33;;;11.63;;
15287;SDS011;7745;48.708;9.026;2024-01-10T01:23:39;21.20;;;11.93;;
15287;SDS011;7745;48.708;9.026;2024-01-10T01:26:05;18.80;;;11.57;;
15287;SDS011;7745;48.708;9.026;2024-01-10T01:28:32;19.10;;;11.93;;
15287;SDS011;7745;48.708;9.026;2024-01-10T01:31:00;19.97;;;11.23;;
15287;SDS011;7745;48.708;9.026;2024-01-10T01:33:27;18.87;;;12.03;;
15287;SDS011;7745;48.708;9.026;2024-01-10T01:35:54;21.83;;;11.87;;
15287;SDS011;7745;48.708;9.026;2024-01-10T01:38:21;20.80;;;11.90;;
15287;SDS011;7745;48.708;9.026;2024-01-10T01:40:47;22.40;;;11.80;;
15287;SDS011;7745;48.708;9.026;2024-01-10T01:43:21;21.57;;;12.53;;
15287;SDS011;7745;48.708;9.026;2024-01-10T01:45:49;22.27;;;12.03;;
15287;SDS011;7745;48.708;9.026;2024-01-10T01:48:18;19.80;;;11.93;;
15287;SDS011;7745;48.708;9.026;2024-01-10T01:50:46;21.23;;;12.17;;
15287;SDS011;7745;48.708;9.026;2024-01-10T01:53:15;19.47;;;11.00;;
15287;SDS011;7745;48.708;9.026;2024-01-10T01:55:43;18.53;;;11.97;;
15287;SDS011;7745;48.708;9.026;2024-01-10T01:58:10;22.37;;;11.87;;
15287;SDS011;7745;48.708;9.026;2024-01-10T02:00:38;21.77;;;11.43;;
15287;SDS011;7745;48.708;9.026;2024-01-10T02:03:05;22.90;;;11.67;;
15287;SDS011;7745;48.708;9.026;2024-01-10T02:05:35;22.30;;;11.10;;
15287;SDS011;7745;48.708;9.026;2024-01-10T02:08:02;21.23;;;11.50;;
15287;SDS011;7745;48.708;9.026;2024-01-10T02:10:29;20.60;;;12.23;;
15287;SDS011;7745;48.708;9.026;2024-01-10T02:12:56;21.43;;;11.43;;
15287;SDS011;7745;48.708;9.026;2024-01-10T02:15:23;18.70;;;11.50;;
15287;SDS011;7745;48.708;9.026;2024-01-10T02:17:50;19.50;;;12.07;;
15287;SDS011;7745;48.708;9.026;2024-01-10T02:20:17;21.33;;;12.17;;
15287;SDS011;7745;48.708;9.026;2024-01-10T02:22:45;21.53;;;11.10;;
15287;SDS011;7745;48.708;9.026;2024-01-10T02:25:13;21.33;;;11.70;;
15287;SDS011;7745;48.708;9.026;2024-01-10T02:27:40;21.77;;;11.70;;
15287;SDS011;7745;48.708;9.026;2024-01-10T02:30:08;21.13;;;12.57;;
15287;SDS011;7745;48.708;9.026;2024-01-10T02:32:36;19.10;;;11.97;;
15287;SDS011;7745;48.708;9.026;2024-01-10T02:35:03;20.93;;;12.67;;
15287;SDS011;7745;48.708;9.026;2024-01-10T02:37:30;20.80;;;12.83;;
15287;SDS011;7745;48.708;9.026;2024-01-10T02:39:57;21.60;;;12.37;;
15287;SDS011;7745;48.708;9.026;2024-01-10T02:42:25;21.07;;;12.53;;
15287;SDS011;7745;48.708;9.026;2024-01-10T02:44:53;22.77;;;12.60;;
15287;SDS011;7745;48.708;9.026;2024-01-10T02:47:20;23.90;;;12.70;;
15287;SDS011;7745;48.708;9.026;2024-01-10T02:49:46;23.17;;;11.90;;
15287;SDS011;7745;48.708;9.026;2024-01-10T02:52:14;23.23;;;13.00;;
15287;SDS011;7745;48.708;9.026;2024-01-10T02:54:40;23.07;;;11.97;;
15287;SDS011;7745;48.708;9.026;2024-01-10T02:57:07;20.50;;;12.00;;
15287;SDS011;7745;48.708;9.026;2024-01-10T02:59:35;21.67;;;13.07;;
15287;SDS011;7745;48.708;9.026;2024-01-10T03:02:02;20.07;;;11.67;;
15287;SDS011;7745;48.708;9.026;2024-01-10T03:04:29;26.43;;;12.83;;
15287;SDS011;7745;48.708;9.026;2024-01-10T03:06:56;21.67;;;12.33;;
15287;SDS011;7745;48.708;9.026;2024-01-10T03:09:23;23.90;;;13.13;;
15287;SDS011;7745;48.708;9.026;2024-01-10T03:11:50;23.77;;;13.27;;
15287;SDS011;7745;48.708;9.026;2024-01-10T03:14:16;21.00;;;12.67;;
15287;SDS011;7745;48.708;9.026;2024-01-10T03:16:45;25.13;;;13.17;;
15287;SDS011;7745;48.708;9.026;2024-01-10T03:19:11;25.43;;;13.60;;
15287;SDS011;7745;48.708;9.026;2024-01-10T03:21:38;20.70;;;12.63;;
15287;SDS011;7745;48.708;9.026;2024-01-10T03:24:05;21.73;;;12.67;;
15287;SDS011;7745;48.708;9.026;2024-01-10T03:26:33;23.10;;;13.23;;
15287;SDS011;7745;48.708;9.026;2024-01-10T03:29:00;24.97;;;12.40;;
15287;SDS011;7745;48.708;9.026;2024-01-10T03:31:27;24.00;;;13.07;;
15287;SDS011;7745;48.708;9.026;2024-01-10T03:33:58;26.17;;;13.37;;
15287;SDS011;7745;48.708;9.026;2024-01-10T03:36:24;22.60;;;13.30;;
15287;SDS011;7745;48.708;9.026;2024-01-10T03:38:51;22.43;;;12.83;;
15287;SDS011;7745;48.708;9.026;2024-01-10T03:41:18;25.00;;;13.77;;
15287;SDS011;7745;48.708;9.026;2024-01-10T03:43:46;19.40;;;12.80;;
15287;SDS011;7745;48.708;9.026;2024-01-10T03:46:13;23.37;;;13.13;;
15287;SDS011;7745;48.708;9.026;2024-01-10T03:48:40;20.17;;;12.30;;
15287;SDS011;7745;48.708;9.026;2024-01-10T03:51:14;21.40;;;12.73;;
15287;SDS011;7745;48.708;9.026;2024-01-10T03:53:41;24.70;;;14.07;;
15287;SDS011;7745;48.708;9.026;2024-01-10T03:56:08;23.10;;;12.83;;
15287;SDS011;7745;48.708;9.026;2024-01-10T03:58:34;21.93;;;13.00;;
15287;SDS011;7745;48.708;9.026;2024-01-10T04:01:03;23.80;;;13.53;;
15287;SDS011;7745;48.708;9.026;2024-01-10T04:03:31;21.53;;;13.73;;
15287;SDS011;7745;48.708;9.026;2024-01-10T04:05:58;21.30;;;13.00;;
15287;SDS011;7745;48.708;9.026;2024-01-10T04:08:26;22.50;;;13.97;;
15287;SDS011;7745;48.708;9.026;2024-01-10T04:10:53;22.73;;;13.23;;
15287;SDS011;7745;48.708;9.026;2024-01-10T04:13:20;21.80;;;12.37;;
15287;SDS011;7745;48.708;9.026;2024-01-10T04:15:46;20.90;;;13.63;;
15287;SDS011;7745;48.708;9.026;2024-01-10T04:18:13;22.60;;;14.30;;
15287;SDS011;7745;48.708;9.026;2024-01-10T04:20:40;23.13;;;13.53;;
15287;SDS011;7745;48.708;9.026;2024-01-10T04:23:09;22.67;;;13.57;;
15287;SDS011;7745;48.708;9.026;2024-01-10T04:25:37;21.47;;;13.27;;
15287;SDS011;7745;48.708;9.026;2024-01-10T04:28:04;22.83;;;13.10;;
15287;SDS011;7745;48.708;9.026;2024-01-10T04:30:31;21.53;;;13.03;;
15287;SDS011;7745;48.708;9.026;2024-01-10T04:32:58;25.67;;;13.90;;
15287;SDS011;7745;48.708;9.026;2024-01-10T04:35:25;24.50;;;13.67;;
15287;SDS011;7745;48.708;9.026;2024-01-10T04:37:52;25.43;;;13.83;;
15287;SDS011;7745;48.708;9.026;2024-01-10T04:40:19;25.70;;;13.87;;
15287;SDS011;7745;48.708;9.026;2024-01-10T04:42:47;23.33;;;13.60;;
15287;SDS011;7745;48.708;9.026;2024-01-10T04:45:14;30.10;;;14.03;;
15287;SDS011;7745;48.708;9.026;2024-01-10T04:47:41;27.13;;;13.27;;
15287;SDS011;7745;48.708;9.026;2024-01-10T04:50:08;23.43;;;14.07;;
15287;SDS011;7745;48.708;9.026;2024-01-10T04:52:35;23.53;;;13.47;;
15287;SDS011;7745;48.708;9.026;2024-01-10T04:55:02;24.33;;;14.70;;
15287;SDS011;7745;48.708;9.026;2024-01-10T04:57:30;29.23;;;14.90;;
15287;SDS011;7745;48.708;9.026;2024-01-10T04:59:59;26.83;;;14.80;;
15287;SDS011;7745;48.708;9.026;2024-01-10T05:02:26;23.70;;;14.60;;
15287;SDS011;7745;48.708;9.026;2024-01-10T05:04:52;27.23;;;14.40;;
15287;SDS011;7745;48.708;9.026;2024-01-10T05:07:19;28.20;;;14.17;;
15287;SDS011;7745;48.708;9.026;2024-01-10T05:09:46;27.20;;;15.00;;
15287;SDS011;7745;48.708;9.026;2024-01-10T05:12:13;24.57;;;14.83;;
15287;SDS011;7745;48.708;9.026;2024-01-10T05:14:39;26.67;;;14.07;;
15287;SDS011;7745;48.708;9.026;2024-01-10T05:17:08;21.87;;;13.87;;
15287;SDS011;7745;48.708;9.026;2024-01-10T05:19:34;24.33;;;13.43;;
15287;SDS011;7745;48.708;9.026;2024-01-10T05:22:01;26.53;;;15.27;;
15287;SDS011;7745;48.708;9.026;2024-01-10T05:24:29;28.23;;;15.10;;
15287;SDS011;7745;48.708;9.026;2024-01-10T05:26:56;23.90;;;13.87;;
15287;SDS011;7745;48.708;9.026;2024-01-10T05:29:22;26.23;;;15.07;;
15287;SDS011;7745;48.708;9.026;2024-01-10T05:31:50;24.87;;;14.80;;
15287;SDS011;7745;48.708;9.026;2024-01-10T05:34:18;25.00;;;14.30;;
15287;SDS011;7745;48.708;9.026;2024-01-10T05:36:45;25.57;;;15.07;;
15287;SDS011;7745;48.708;9.026;2024-01-10T05:39:12;24.07;;;14.80;;
15287;SDS011;7745;48.708;9.026;2024-01-10T05:41:40;26.00;;;14.30;;
15287;SDS011;7745;48.708;9.026;2024-01-10T05:44:08;24.60;;;14.33;;
15287;SDS011;7745;48.708;9.026;2024-01-10T05:46:35;25.43;;;14.07;;
15287;SDS011;7745;48.708;9.026;2024-01-10T05:49:02;25.13;;;14.27;;
15287;SDS011;7745;48.708;9.026;2024-01-10T05:51:31;25.73;;;14.33;;
15287;SDS011;7745;48.708;9.026;2024-01-10T05:53:58;24.57;;;15.30;;
15287;SDS011;7745;48.708;9.026;2024-01-10T05:56:25;24.17;;;15.73;;
15287;SDS011;7745;48.708;9.026;2024-01-10T05:58:52;25.97;;;15.03;;
15287;SDS011;7745;48.708;9.026;2024-01-10T06:01:19;26.27;;;15.07;;
15287;SDS011;7745;48.708;9.026;2024-01-10T06:03:45;25.07;;;16.00;;
15287;SDS011;7745;48.708;9.026;2024-01-10T06:06:12;24.97;;;14.10;;
15287;SDS011;7745;48.708;9.026;2024-01-10T06:08:40;26.93;;;16.17;;
15287;SDS011;7745;48.708;9.026;2024-01-10T06:11:07;24.57;;;14.87;;
15287;SDS011;7745;48.708;9.026;2024-01-10T06:13:34;28.20;;;15.50;;
15287;SDS011;7745;48.708;9.026;2024-01-10T06:16:02;28.13;;;16.77;;
15287;SDS011;7745;48.708;9.026;2024-01-10T06:18:29;29.73;;;15.50;;
15287;SDS011;7745;48.708;9.026;2024-01-10T06:20:56;26.63;;;15.53;;
15287;SDS011;7745;48.708;9.026;2024-01-10T06:23:23;25.40;;;16.07;;
15287;SDS011;7745;48.708;9.026;2024-01-10T06:25:51;31.87;;;15.53;;
15287;SDS011;7745;48.708;9.026;2024-01-10T06:28:19;26.37;;;15.57;;
15287;SDS011;7745;48.708;9.026;2024-01-10T06:30:46;28.57;;;15.83;;
15287;SDS011;7745;48.708;9.026;2024-01-10T06:33:13;29.57;;;16.77;;
15287;SDS011;7745;48.708;9.026;2024-01-10T06:35:40;30.67;;;17.90;;
15287;SDS011;7745;48.708;9.026;2024-01-10T06:38:08;29.00;;;16.87;;
15287;SDS011;7745;48.708;9.026;2024-01-10T06:40:35;32.13;;;17.07;;
15287;SDS011;7745;48.708;9.026;2024-01-10T06:43:04;27.83;;;15.13;;
15287;SDS011;7745;48.708;9.026;2024-01-10T06:45:33;28.23;;;17.13;;
15287;SDS011;7745;48.708;9.026;2024-01-10T06:48:00;27.87;;;14.90;;
15287;SDS011;7745;48.708;9.026;2024-01-10T06:50:27;25.27;;;14.67;;
15287;SDS011;7745;48.708;9.026;2024-01-10T06:52:55;29.17;;;15.03;;
15287;SDS011;7745;48.708;9.026;2024-01-10T06:55:22;29.27;;;16.53;;
15287;SDS011;7745;48.708;9.026;2024-01-10T06:57:49;32.37;;;16.87;;
15287;SDS011;7745;48.708;9.026;2024-01-10T07:00:19;26.53;;;14.57;;
15287;SDS011;7745;48.708;9.026;2024-01-10T07:02:46;29.77;;;17.77;;
15287;SDS011;7745;48.708;9.026;2024-01-10T07:05:13;26.10;;;15.37;;
15287;SDS011;7745;48.708;9.026;2024-01-10T07:07:41;30.30;;;15.57;;
15287;SDS011;7745;48.708;9.026;2024-01-10T07:10:08;23.87;;;14.63;;
15287;SDS011;7745;48.708;9.026;2024-01-10T07:12:35;28.67;;;16.67;;
15287;SDS011;7745;48.708;9.026;2024-01-10T07:15:03;28.60;;;16.20;;
15287;SDS011;7745;48.708;9.026;2024-01-10T07:17:31;27.60;;;15.17;;
15287;SDS011;7745;48.708;9.026;2024-01-10T07:19:58;28.10;;;16.10;;
15287;SDS011;7745;48.708;9.026;2024-01-10T07:22:25;30.53;;;17.87;;
15287;SDS011;7745;48.708;9.026;2024-01-10T07:24:52;38.13;;;19.93;;
15287;SDS011;7745;48.708;9.026;2024-01-10T07:27:19;32.83;;;19.33;;
15287;SDS011;7745;48.708;9.026;2024-01-10T07:29:45;31.07;;;16.83;;
15287;SDS011;7745;48.708;9.026;2024-01-10T07:32:12;25.70;;;15.43;;
15287;SDS011;7745;48.708;9.026;2024-01-10T07:34:40;31.17;;;15.97;;
15287;SDS011;7745;48.708;9.026;2024-01-10T07:37:07;27.77;;;16.50;;
15287;SDS011;7745;48.708;9.026;2024-01-10T07:39:36;27.27;;;15.60;;
15287;SDS011;7745;48.708;9.026;2024-01-10T07:42:03;29.70;;;16.57;;
15287;SDS011;7745;48.708;9.026;2024-01-10T07:44:30;31.17;;;16.83;;
15287;SDS011;7745;48.708;9.026;2024-01-10T07:46:57;28.57;;;16.27;;
15287;SDS011;7745;48.708;9.026;2024-01-10T07:49:23;28.60;;;16.23;;
15287;SDS011;7745;48.708;9.026;2024-01-10T07:51:52;36.07;;;18.17;;
15287;SDS011;7745;48.708;9.026;2024-01-10T07:54:19;54.63;;;21.60;;
15287;SDS011;7745;48.708;9.026;2024-01-10T07:56:46;58.93;;;24.60;;
15287;SDS011;7745;48.708;9.026;2024-01-10T07:59:13;60.00;;;24.07;;
15287;SDS011;7745;48.708;9.026;2024-01-10T08:01:43;52.10;;;21.60;;
15287;SDS011;7745;48.708;9.026;2024-01-10T08:04:20;44.50;;;19.37;;
15287;SDS011;7745;48.708;9.026;2024-01-10T08:06:50;34.40;;;18.53;;
15287;SDS011;7745;48.708;9.026;2024-01-10T08:09:20;33.23;;;17.37;;
15287;SDS011;7745;48.708;9.026;2024-01-10T08:11:46;28.47;;;16.90;;
15287;SDS011;7745;48.708;9.026;2024-01-10T08:14:14;28.77;;;17.30;;
15287;SDS011;7745;48.708;9.026;2024-01-10T08:16:40;26.97;;;16.13;;
15287;SDS011;7745;48.708;9.026;2024-01-10T08:19:08;47.00;;;26.03;;
15287;SDS011;7745;48.708;9.026;2024-01-10T08:21:36;38.87;;;23.27;;
15287;SDS011;7745;48.708;9.026;2024-01-10T08:24:04;36.33;;;22.07;;
15287;SDS011;7745;48.708;9.026;2024-01-10T08:26:32;34.37;;;22.93;;
15287;SDS011;7745;48.708;9.026;2024-01-10T08:28:59;34.83;;;20.03;;
15287;SDS011;7745;48.708;9.026;2024-01-10T08:31:25;34.97;;;19.30;;
15287;SDS011;7745;48.708;9.026;2024-01-10T08:33:52;34.53;;;19.97;;
15287;SDS011;7745;48.708;9.026;2024-01-10T08:36:19;31.43;;;18.03;;
15287;SDS011;7745;48.708;9.026;2024-01-10T08:38:46;32.47;;;18.70;;
15287;SDS011;7745;48.708;9.026;2024-01-10T08:41:15;30.83;;;18.63;;
15287;SDS011;7745;48.708;9.026;2024-01-10T08:43:42;32.53;;;17.83;;
15287;SDS011;7745;48.708;9.026;2024-01-10T08:46:09;29.87;;;17.70;;
15287;SDS011;7745;48.708;9.026;2024-01-10T08:48:36;33.47;;;18.80;;
15287;SDS011;7745;48.708;9.026;2024-01-10T08:51:03;32.57;;;19.30;;
15287;SDS011;7745;48.708;9.026;2024-01-10T08:53:30;43.10;;;19.70;;
15287;SDS011;7745;48.708;9.026;2024-01-10T08:55:57;32.87;;;19.57;;
15287;SDS011;7745;48.708;9.026;2024-01-10T08:58:26;31.13;;;18.33;;
15287;SDS011;7745;48.708;9.026;2024-01-10T09:00:52;33.27;;;20.03;;
15287;SDS011;7745;48.708;9.026;2024-01-10T09:03:19;32.27;;;18.70;;
15287;SDS011;7745;48.708;9.026;2024-01-10T09:05:46;33.77;;;19.80;;
15287;SDS011;7745;48.708;9.026;2024-01-10T09:08:13;33.13;;;19.50;;
15287;SDS011;7745;48.708;9.026;2024-01-10T09:10:40;34.70;;;20.13;;
15287;SDS011;7745;48.708;9.026;2024-01-10T09:13:07;38.90;;;21.53;;
15287;SDS011;7745;48.708;9.026;2024-01-10T09:15:35;38.47;;;22.40;;
15287;SDS011;7745;48.708;9.026;2024-01-10T09:18:02;39.60;;;22.57;;
15287;SDS011;7745;48.708;9.026;2024-01-10T09:20:29;36.57;;;20.97;;
15287;SDS011;7745;48.708;9.026;2024-01-10T09:22:56;34.67;;;21.03;;
15287;SDS011;7745;48.708;9.026;2024-01-10T09:25:25;34.30;;;20.80;;
15287;SDS011;7745;48.708;9.026;2024-01-10T09:27:51;38.20;;;21.50;;
15287;SDS011;7745;48.708;9.026;2024-01-10T09:30:19;38.63;;;22.53;;
15287;SDS011;7745;48.708;9.026;2024-01-10T09:32:47;33.80;;;21.83;;
15287;SDS011;7745;48.708;9.026;2024-01-10T09:35:14;35.47;;;22.00;;
15287;SDS011;7745;48.708;9.026;2024-01-10T09:37:42;32.73;;;20.37;;
15287;SDS011;7745;48.708;9.026;2024-01-10T09:40:10;36.87;;;21.60;;
15287;SDS011;7745;48.708;9.026;2024-01-10T09:42:40;30.33;;;20.43;;
15287;SDS011;7745;48.708;9.026;2024-01-10T09:45:08;34.87;;;20.53;;
15287;SDS011;7745;48.708;9.026;2024-01-10T09:47:37;31.80;;;21.20;;
15287;SDS011;7745;48.708;9.026;2024-01-10T09:50:08;37.67;;;21.40;;
15287;SDS011;7745;48.708;9.026;2024-01-10T09:52:39;35.20;;;21.17;;
15287;SDS011;7745;48.708;9.026;2024-01-10T09:55:08;34.97;;;21.20;;
15287;SDS011;7745;48.708;9.026;2024-01-10T09:57:37;35.47;;;21.20;;
15287;SDS011;7745;48.708;9.026;2024-01-10T10:00:06;36.47;;;21.63;;
15287;SDS011;7745;48.708;9.026;2024-01-10T10:02:37;35.00;;;21.50;;
15287;SDS011;7745;48.708;9.026;2024-01-10T10:05:07;34.00;;;19.73;;
15287;SDS011;7745;48.708;9.026;2024-01-10T10:07:44;34.60;;;21.67;;
15287;SDS011;7745;48.708;9.026;2024-01-10T10:10:11;32.20;;;21.13;;
15287;SDS011;7745;48.708;9.026;2024-01-10T10:12:43;32.93;;;20.27;;
15287;SDS011;7745;48.708;9.026;2024-01-10T10:15:11;35.17;;;20.90;;
15287;SDS011;7745;48.708;9.026;2024-01-10T10:17:39;31.10;;;19.60;;
15287;SDS011;7745;48.708;9.026;2024-01-10T10:20:13;31.67;;;19.60;;
15287;SDS011;7745;48.708;9.026;2024-01-10T10:22:41;33.23;;;20.53;;
15287;SDS011;7745;48.708;9.026;2024-01-10T10:25:26;38.87;;;21.37;;
15287;SDS011;7745;48.708;9.026;2024-01-10T10:27:54;37.33;;;20.53;;
15287;SDS011;7745;48.708;9.026;2024-01-10T10:30:21;30.57;;;20.13;;
15287;SDS011;7745;48.708;9.026;2024-01-10T10:32:48;35.90;;;21.17;;
15287;SDS011;7745;48.708;9.026;2024-01-10T10:35:17;33.67;;;20.80;;
15287;SDS011;7745;48.708;9.026;2024-01-10T10:37:45;32.77;;;20.23;;
15287;SDS011;7745;48.708;9.026;2024-01-10T10:40:12;34.97;;;20.27;;
15287;SDS011;7745;48.708;9.026;2024-01-10T10:42:40;32.23;;;19.67;;
15287;SDS011;7745;48.708;9.026;2024-01-10T10:45:10;31.87;;;19.33;;
15287;SDS011;7745;48.708;9.026;2024-01-10T10:47:41;31.40;;;20.90;;
15287;SDS011;7745;48.708;9.026;2024-01-10T10:50:10;29.97;;;20.63;;
15287;SDS011;7745;48.708;9.026;2024-01-10T10:52:40;41.60;;;22.63;;
15287;SDS011;7745;48.708;9.026;2024-01-10T10:55:12;47.60;;;29.37;;
15287;SDS011;7745;48.708;9.026;2024-01-10T10:57:40;32.23;;;21.10;;
15287;SDS011;7745;48.708;9.026;2024-01-10T11:00:10;39.23;;;22.17;;
15287;SDS011;7745;48.708;9.026;2024-01-10T11:02:40;32.50;;;20.80;;
15287;SDS011;7745;48.708;9.026;2024-01-10T11:05:07;37.57;;;22.03;;
15287;SDS011;7745;48.708;9.026;2024-01-10T11:07:35;34.40;;;21.30;;
15287;SDS011;7745;48.708;9.026;2024-01-10T11:10:04;38.00;;;22.93;;
15287;SDS011;7745;48.708;9.026;2024-01-10T11:12:39;35.20;;;21.17;;
15287;SDS011;7745;48.708;9.026;2024-01-10T11:15:24;33.77;;;21.47;;
15287;SDS011;7745;48.708;9.026;2024-01-10T11:18:08;36.30;;;22.07;;
15287;SDS011;7745;48.708;9.026;2024-01-10T11:20:47;33.23;;;21.73;;
15287;SDS011;7745;48.708;9.026;2024-01-10T11:23:36;33.87;;;21.63;;
15287;SDS011;7745;48.708;9.026;2024-01-10T11:26:07;33.10;;;21.17;;
15287;SDS011;7745;48.708;9.026;2024-01-10T11:28:35;36.97;;;21.50;;
15287;SDS011;7745;48.708;9.026;2024-01-10T11:31:03;36.07;;;21.77;;
15287;SDS011;7745;48.708;9.026;2024-01-10T11:33:33;35.30;;;21.60;;
15287;SDS011;7745;48.708;9.026;2024-01-10T11:36:14;41.63;;;22.93;;
15287;SDS011;7745;48.708;9.026;2024-01-10T11:38:43;38.73;;;22.20;;
15287;SDS011;7745;48.708;9.026;2024-01-10T11:41:19;33.60;;;20.33;;
15287;SDS011;7745;48.708;9.026;2024-01-10T11:46:49;31.43;;;20.63;;
15287;SDS011;7745;48.708;9.026;2024-01-10T11:49:19;40.30;;;24.20;;
15287;SDS011;7745;48.708;9.026;2024-01-10T11:51:47;34.57;;;21.80;;
15287;SDS011;7745;48.708;9.026;2024-01-10T11:57:10;41.57;;;22.57;;
15287;SDS011;7745;48.708;9.026;2024-01-10T11:59:37;35.57;;;21.63;;
15287;SDS011;7745;48.708;9.026;2024-01-10T12:02:08;35.27;;;23.03;;
15287;SDS011;7745;48.708;9.026;2024-01-10T12:04:39;35.07;;;23.07;;
15287;SDS011;7745;48.708;9.026;2024-01-10T12:07:07;34.73;;;21.13;;
15287;SDS011;7745;48.708;9.026;2024-01-10T12:09:34;39.67;;;23.37;;
15287;SDS011;7745;48.708;9.026;2024-01-10T12:12:04;36.23;;;20.30;;
15287;SDS011;7745;48.708;9.026;2024-01-10T12:14:33;38.97;;;22.17;;
15287;SDS011;7745;48.708;9.026;2024-01-10T12:17:00;40.70;;;21.83;;
15287;SDS011;7745;48.708;9.026;2024-01-10T12:19:29;38.73;;;22.83;;
15287;SDS011;7745;48.708;9.026;2024-01-10T12:21:56;38.70;;;21.73;;
15287;SDS011;7745;48.708;9.026;2024-01-10T12:24:23;40.07;;;22.27;;
15287;SDS011;7745;48.708;9.026;2024-01-10T12:26:54;36.27;;;20.27;;
15287;SDS011;7745;48.708;9.026;2024-01-10T12:29:22;36.20;;;22.30;;
15287;SDS011;7745;48.708;9.026;2024-01-10T12:31:51;31.57;;;21.57;;
15287;SDS011;7745;48.708;9.026;2024-01-10T12:34:19;33.50;;;20.73;;
15287;SDS011;7745;48.708;9.026;2024-01-10T12:36:47;46.20;;;23.63;;
15287;SDS011;7745;48.708;9.026;2024-01-10T12:39:14;34.30;;;21.43;;
15287;SDS011;7745;48.708;9.026;2024-01-10T12:41:42;60.97;;;26.30;;
15287;SDS011;7745;48.708;9.026;2024-01-10T12:44:10;35.20;;;22.33;;
15287;SDS011;7745;48.708;9.026;2024-01-10T12:46:48;37.50;;;21.93;;
15287;SDS011;7745;48.708;9.026;2024-01-10T12:49:17;50.40;;;24.57;;
15287;SDS011;7745;48.708;9.026;2024-01-10T12:51:45;36.67;;;19.73;;
15287;SDS011;7745;48.708;9.026;2024-01-10T12:54:13;29.40;;;19.23;;
15287;SDS011;7745;48.708;9.026;2024-01-10T12:56:40;32.40;;;20.03;;
15287;SDS011;7745;48.708;9.026;2024-01-10T12:59:07;31.73;;;20.03;;
15287;SDS011;7745;48.708;9.026;2024-01-10T13:01:35;36.30;;;20.40;;
15287;SDS011;7745;48.708;9.026;2024-01-10T13:04:02;27.17;;;18.57;;
15287;SDS011;7745;48.708;9.026;2024-01-10T13:06:31;36.10;;;20.27;;
15287;SDS011;7745;48.708;9.026;2024-01-10T13:08:58;36.63;;;19.60;;
15287;SDS011;7745;48.708;9.026;2024-01-10T13:11:24;30.00;;;18.73;;
15287;SDS011;7745;48.708;9.026;2024-01-10T13:13:51;37.77;;;20.23;;
15287;SDS011;7745;48.708;9.026;2024-01-10T13:16:18;33.80;;;19.93;;
15287;SDS011;7745;48.708;9.026;2024-01-10T13:18:45;36.17;;;20.10;;
15287;SDS011;7745;48.708;9.026;2024-01-10T13:21:11;29.60;;;18.10;;
15287;SDS011;7745;48.708;9.026;2024-01-10T13:23:39;32.50;;;18.97;;
15287;SDS011;7745;48.708;9.026;2024-01-10T13:26:07;30.57;;;19.00;;
15287;SDS011;7745;48.708;9.026;2024-01-10T13:28:34;33.57;;;20.60;;
15287;SDS011;7745;48.708;9.026;2024-01-10T13:31:01;31.50;;;18.53;;
15287;SDS011;7745;48.708;9.026;2024-01-10T13:33:29;31.37;;;19.67;;
15287;SDS011;7745;48.708;9.026;2024-01-10T13:35:56;31.20;;;18.43;;
15287;SDS011;7745;48.708;9.026;2024-01-10T13:38:24;32.70;;;19.33;;
15287;SDS011;7745;48.708;9.026;2024-01-10T13:40:52;28.27;;;18.43;;
15287;SDS011;7745;48.708;9.026;2024-01-10T13:43:19;30.17;;;19.27;;
15287;SDS011;7745;48.708;9.026;2024-01-10T13:45:46;29.37;;;18.80;;
15287;SDS011;7745;48.708;9.026;2024-01-10T13:48:12;27.57;;;18.37;;
15287;SDS011;7745;48.708;9.026;2024-01-10T13:50:39;28.33;;;18.70;;
15287;SDS011;7745;48.708;9.026;2024-01-10T13:53:06;30.87;;;18.27;;
15287;SDS011;7745;48.708;9.026;2024-01-10T13:55:33;30.80;;;19.20;;
15287;SDS011;7745;48.708;9.026;2024-01-10T13:58:02;26.67;;;18.07;;
15287;SDS011;7745;48.708;9.026;2024-01-10T14:00:29;29.77;;;18.07;;
15287;SDS011;7745;48.708;9.026;2024-01-10T14:02:56;30.13;;;17.83;;
15287;SDS011;7745;48.708;9.026;2024-01-10T14:05:25;32.13;;;18.93;;
15287;SDS011;7745;48.708;9.026;2024-01-10T14:07:52;30.57;;;18.47;;
15287;SDS011;7745;48.708;9.026;2024-01-10T14:10:19;29.27;;;18.80;;
15287;SDS011;7745;48.708;9.026;2024-01-10T14:12:46;31.47;;;19.30;;
15287;SDS011;7745;48.708;9.026;2024-01-10T14:15:15;29.67;;;18.20;;
15287;SDS011;7745;48.708;9.026;2024-01-10T14:17:42;36.67;;;20.70;;
15287;SDS011;7745;48.708;9.026;2024-01-10T14:20:09;32.03;;;19.83;;
15287;SDS011;7745;48.708;9.026;2024-01-10T14:22:38;32.00;;;19.00;;
15287;SDS011;7745;48.708;9.026;2024-01-10T14:25:06;35.17;;;19.40;;
15287;SDS011;7745;48.708;9.026;2024-01-10T14:27:34;33.20;;;19.57;;
15287;SDS011;7745;48.708;9.026;2024-01-10T14:30:03;34.07;;;21.03;;
15287;SDS011;7745;48.708;9.026;2024-01-10T14:32:34;32.50;;;20.40;;
15287;SDS011;7745;48.708;9.026;2024-01-10T14:35:02;32.47;;;21.83;;
15287;SDS011;7745;48.708;9.026;2024-01-10T14:37:30;34.30;;;22.57;;
15287;SDS011;7745;48.708;9.026;2024-01-10T14:39:57;39.30;;;22.67;;
15287;SDS011;7745;48.708;9.026;2024-01-10T14:42:24;38.20;;;21.47;;